Time;durP1;ratioP1;P1;durP2;ratioP2;P2;SDS_P1;SDS_P2;PMS_P1;PMS_P2;Temp;Humidity;BMP_temperature;BMP_pressure;BME280_temperature;BME280_humidity;BME280_pressure;Samples;Min_cycle;Max_cycle;Signal;HPM_P1;HPM_P2
2021/05/27 00:00:15;;;;;;;17.13;12.37;;;10.60;99.90;;;;;;5086912;28;20195;-73
2021/05/27 00:02:44;;;;;;;20.63;12.80;;;10.60;99.90;;;;;;5089220;28;20215;-75
2021/05/27 00:05:13;;;;;;;17.80;13.57;;;10.60;99.90;;;;;;5102714;28;20247;-74
2021/05/27 00:07:41;;;;;;;16.37;12.97;;;10.60;99.90;;;;;;5099248;28;20257;-75
2021/05/27 00:10:13;;;;;;;19.40;13.27;;;10.70;99.90;;;;;;5068357;28;20244;-75
2021/05/27 00:12:41;;;;;;;20.50;13.67;;;10.70;99.90;;;;;;5086901;28;20274;-75
2021/05/27 00:15:11;;;;;;;26.50;14.07;;;10.70;99.90;;;;;;5087078;28;20233;-75
2021/05/27 00:17:40;;;;;;;18.83;14.07;;;10.70;99.90;;;;;;5085018;28;20208;-73
2021/05/27 00:20:10;;;;;;;19.70;13.27;;;10.70;99.90;;;;;;5086451;28;20184;-74
2021/05/27 00:22:39;;;;;;;20.20;14.03;;;10.70;99.90;;;;;;5086692;28;20230;-74
2021/05/27 00:25:15;;;;;;;17.20;12.43;;;10.70;99.90;;;;;;5088116;28;20719;-74
2021/05/27 00:27:43;;;;;;;18.13;13.23;;;10.70;99.90;;;;;;5083291;28;20475;-75
2021/05/27 00:30:12;;;;;;;18.17;13.63;;;10.70;99.90;;;;;;5083564;28;20646;-73
2021/05/27 00:32:41;;;;;;;18.07;14.13;;;10.70;99.90;;;;;;5086711;28;20822;-74
2021/05/27 00:35:11;;;;;;;16.07;13.13;;;10.80;99.90;;;;;;5079537;28;20216;-74
2021/05/27 00:37:39;;;;;;;16.20;13.83;;;10.80;99.90;;;;;;5089782;28;20222;-74
2021/05/27 00:40:11;;;;;;;19.63;14.07;;;10.80;99.90;;;;;;5083222;28;20261;-74
2021/05/27 00:42:39;;;;;;;18.03;13.37;;;10.80;99.90;;;;;;5084958;28;20215;-74
2021/05/27 00:45:10;;;;;;;19.13;14.03;;;10.80;99.90;;;;;;5087177;28;20291;-74
2021/05/27 00:47:38;;;;;;;20.77;14.03;;;10.80;99.90;;;;;;5087346;28;20191;-74
2021/05/27 00:50:10;;;;;;;18.03;13.70;;;10.80;99.90;;;;;;5086814;28;20570;-74
2021/05/27 00:52:39;;;;;;;16.87;13.97;;;10.80;99.90;;;;;;5076425;28;20215;-74
2021/05/27 00:55:08;;;;;;;17.33;14.03;;;10.80;99.90;;;;;;5086836;28;20187;-74
2021/05/27 00:57:38;;;;;;;19.07;14.87;;;10.80;99.90;;;;;;5079301;28;20192;-74
2021/05/27 01:00:09;;;;;;;20.93;15.13;;;10.80;99.90;;;;;;5085545;28;20192;-73
2021/05/27 01:02:37;;;;;;;19.20;15.10;;;10.80;99.90;;;;;;5066888;28;20264;-74
2021/05/27 01:05:07;;;;;;;20.53;14.47;;;10.80;99.90;;;;;;5079304;28;20243;-72
2021/05/27 01:07:37;;;;;;;22.17;15.27;;;10.80;99.90;;;;;;5089028;28;20248;-74
2021/05/27 01:10:06;;;;;;;20.77;15.10;;;10.90;99.90;;;;;;5080861;28;20196;-75
2021/05/27 01:12:34;;;;;;;20.33;15.13;;;10.90;99.90;;;;;;5077302;28;20195;-71
2021/05/27 01:17:48;;;;;;;19.83;14.27;;;10.90;99.90;;;;;;5083918;28;20609;-74
2021/05/27 01:20:17;;;;;;;22.47;15.50;;;11.00;99.90;;;;;;5088405;28;20720;-74
2021/05/27 01:22:45;;;;;;;24.77;16.80;;;11.00;99.90;;;;;;5088167;28;20222;-74
2021/05/27 01:25:14;;;;;;;28.50;17.03;;;11.00;99.90;;;;;;5080283;28;20216;-74
2021/05/27 01:27:43;;;;;;;25.57;16.77;;;11.00;99.90;;;;;;5087664;28;20624;-74
2021/05/27 01:30:12;;;;;;;23.90;16.93;;;11.00;99.90;;;;;;5076057;28;20200;-73
2021/05/27 01:32:39;;;;;;;25.93;16.83;;;11.00;99.90;;;;;;5092209;28;20223;-74
2021/05/27 01:35:14;;;;;;;24.80;16.87;;;10.90;99.90;;;;;;5088525;28;20188;-73
2021/05/27 01:37:42;;;;;;;28.80;17.33;;;10.90;99.90;;;;;;5087873;28;20310;-74
2021/05/27 01:40:13;;;;;;;27.17;17.73;;;10.90;99.90;;;;;;5082743;28;20223;-73
2021/05/27 01:42:41;;;;;;;31.17;19.13;;;10.90;99.90;;;;;;5085468;28;20282;-74
2021/05/27 01:45:12;;;;;;;28.47;18.83;;;11.00;99.90;;;;;;5068071;28;20298;-75
2021/05/27 01:47:40;;;;;;;32.80;18.93;;;11.00;99.90;;;;;;5084666;28;20249;-74
2021/05/27 01:50:09;;;;;;;29.80;19.57;;;10.90;99.90;;;;;;5086434;28;20610;-75
2021/05/27 01:52:38;;;;;;;29.50;18.87;;;10.90;99.90;;;;;;5080161;28;20729;-75
2021/05/27 01:55:07;;;;;;;29.77;19.53;;;10.90;99.90;;;;;;5079340;28;20223;-74
2021/05/27 01:57:39;;;;;;;29.37;18.93;;;11.00;99.90;;;;;;5087374;28;20234;-73
2021/05/27 02:00:08;;;;;;;32.17;19.50;;;11.00;99.90;;;;;;5086614;28;20286;-74
2021/05/27 02:02:37;;;;;;;30.10;19.37;;;10.90;99.90;;;;;;5095560;28;20200;-71
2021/05/27 02:05:05;;;;;;;31.23;18.80;;;10.90;99.90;;;;;;5087987;28;20210;-75
2021/05/27 02:07:34;;;;;;;31.10;18.90;;;10.90;99.90;;;;;;5077154;28;20580;-75
2021/05/27 02:10:04;;;;;;;33.27;19.00;;;10.90;99.90;;;;;;5083425;28;20196;-75
2021/05/27 02:12:32;;;;;;;32.00;19.67;;;10.90;99.90;;;;;;5083814;28;20187;-75
2021/05/27 02:15:00;;;;;;;27.50;18.00;;;10.80;99.90;;;;;;5081579;28;20650;-74
2021/05/27 02:17:28;;;;;;;35.40;19.43;;;10.80;99.90;;;;;;5086668;28;20735;-74
2021/05/27 02:19:56;;;;;;;32.57;19.00;;;10.70;99.90;;;;;;5084635;28;20188;-75
2021/05/27 02:22:24;;;;;;;30.90;19.73;;;10.80;99.90;;;;;;5087034;28;20223;-74
2021/05/27 02:24:52;;;;;;;30.97;19.37;;;10.80;99.90;;;;;;5077042;28;20302;-74
2021/05/27 02:27:20;;;;;;;30.63;19.73;;;10.80;99.90;;;;;;5074172;28;20673;-74
2021/05/27 02:29:49;;;;;;;30.77;18.93;;;10.80;99.90;;;;;;5084716;28;20307;-75
2021/05/27 02:32:18;;;;;;;34.07;19.77;;;10.80;99.90;;;;;;5085974;28;20278;-75
2021/05/27 02:34:46;;;;;;;28.97;18.60;;;10.80;99.90;;;;;;5085339;28;20194;-74
2021/05/27 02:37:17;;;;;;;34.07;19.00;;;10.90;99.90;;;;;;5082803;28;20192;-74
2021/05/27 02:39:45;;;;;;;31.70;18.83;;;10.90;99.90;;;;;;5083044;28;20290;-74
2021/05/27 02:42:13;;;;;;;37.10;19.70;;;10.90;99.90;;;;;;5084043;28;20282;-74
2021/05/27 02:44:41;;;;;;;33.30;19.07;;;10.90;99.90;;;;;;5080117;28;20187;-74
2021/05/27 02:47:09;;;;;;;31.47;19.97;;;10.90;99.90;;;;;;5086245;28;20298;-74
2021/05/27 02:49:37;;;;;;;33.47;19.23;;;10.90;99.90;;;;;;5087934;28;20278;-75
2021/05/27 02:52:05;;;;;;;29.10;18.80;;;10.90;99.90;;;;;;5083075;28;20220;-74
2021/05/27 02:54:34;;;;;;;29.53;18.60;;;10.90;99.90;;;;;;5087859;28;20257;-74
2021/05/27 02:57:01;;;;;;;34.13;19.47;;;10.90;99.90;;;;;;5079169;28;20301;-74
2021/05/27 02:59:32;;;;;;;34.00;20.37;;;10.90;99.90;;;;;;5082177;28;20253;-74
2021/05/27 03:02:00;;;;;;;31.23;19.47;;;10.90;99.90;;;;;;5081065;28;20290;-75
2021/05/27 03:04:28;;;;;;;32.00;19.70;;;10.80;99.90;;;;;;5084615;28;20282;-74
2021/05/27 03:06:56;;;;;;;33.40;19.93;;;10.80;99.90;;;;;;5085416;28;20306;-74
2021/05/27 03:09:24;;;;;;;36.03;20.50;;;10.70;99.90;;;;;;5086006;28;20191;-74
2021/05/27 03:11:53;;;;;;;36.60;21.47;;;10.70;99.90;;;;;;5081229;28;20900;-74
2021/05/27 03:14:22;;;;;;;34.03;20.87;;;10.60;99.90;;;;;;5084117;28;20196;-74
2021/05/27 03:16:50;;;;;;;35.70;21.43;;;10.50;99.90;;;;;;5099577;28;20220;-74
2021/05/27 03:19:18;;;;;;;35.67;20.67;;;10.50;99.90;;;;;;5085857;28;20231;-74
2021/05/27 03:21:47;;;;;;;37.17;21.10;;;10.50;99.90;;;;;;5087700;28;20290;-74
2021/05/27 03:24:17;;;;;;;39.97;21.23;;;10.40;99.90;;;;;;5076651;28;20219;-74
2021/05/27 03:26:44;;;;;;;37.43;21.50;;;10.40;99.90;;;;;;5089771;28;20195;-74
2021/05/27 03:29:13;;;;;;;41.90;22.03;;;10.40;99.90;;;;;;5089329;28;20383;-74
2021/05/27 03:31:41;;;;;;;35.43;22.50;;;10.40;99.90;;;;;;5088328;28;20283;-73
2021/05/27 03:34:09;;;;;;;38.77;23.00;;;10.40;99.90;;;;;;5079106;28;20784;-74
2021/05/27 03:36:37;;;;;;;40.67;22.60;;;10.40;99.90;;;;;;5086838;28;20841;-74
2021/05/27 03:39:05;;;;;;;36.07;22.20;;;10.50;99.90;;;;;;5089379;28;20188;-73
2021/05/27 03:41:34;;;;;;;45.63;23.57;;;10.50;99.90;;;;;;5087712;28;20231;-74
2021/05/27 03:44:02;;;;;;;37.70;24.60;;;10.50;99.90;;;;;;5081864;28;20216;-74
2021/05/27 03:46:31;;;;;;;37.47;22.63;;;10.60;99.90;;;;;;5083179;28;20819;-75
2021/05/27 03:48:59;;;;;;;42.03;23.67;;;10.60;99.90;;;;;;5090889;28;20219;-74
2021/05/27 03:51:27;;;;;;;41.53;24.03;;;10.60;99.90;;;;;;5089817;28;20226;-74
2021/05/27 03:53:55;;;;;;;41.50;24.10;;;10.60;99.90;;;;;;5087909;28;20199;-75
2021/05/27 03:56:23;;;;;;;42.40;23.63;;;10.60;99.90;;;;;;5090957;28;20279;-75
2021/05/27 04:01:38;;;;;;;46.97;24.43;;;10.60;99.90;;;;;;5085648;28;20195;-74
2021/05/27 04:07:11;;;;;;;40.30;22.93;;;10.60;99.90;;;;;;5083428;28;20265;-74
2021/05/27 04:09:39;;;;;;;46.10;23.90;;;10.70;99.90;;;;;;5083875;28;20223;-74
2021/05/27 04:17:43;;;;;;;41.27;24.93;;;10.70;99.90;;;;;;5081768;28;20184;-73
2021/05/27 04:20:12;;;;;;;42.27;25.27;;;10.70;99.90;;;;;;5083449;28;20236;-74
2021/05/27 04:22:41;;;;;;;42.20;24.93;;;10.70;99.90;;;;;;5088294;28;20231;-74
2021/05/27 04:25:11;;;;;;;45.00;26.10;;;10.70;99.90;;;;;;5085433;28;20639;-74
2021/05/27 04:27:39;;;;;;;40.37;25.47;;;10.70;99.90;;;;;;5075164;28;20196;-74
2021/05/27 04:30:16;;;;;;;41.60;25.43;;;10.70;99.90;;;;;;5088959;28;20199;-74
2021/05/27 04:33:00;;;;;;;45.37;26.00;;;10.70;99.90;;;;;;5082852;28;20198;-70
2021/05/27 04:35:33;;;;;;;48.77;26.43;;;10.70;99.90;;;;;;5086034;28;20220;-74
2021/05/27 04:38:04;;;;;;;43.63;26.67;;;10.70;99.90;;;;;;5086735;28;20608;-75
2021/05/27 04:40:32;;;;;;;42.37;25.63;;;10.80;99.90;;;;;;5084106;28;20650;-74
2021/05/27 04:43:00;;;;;;;44.73;26.63;;;10.70;99.90;;;;;;5085604;28;20191;-75
2021/05/27 04:45:29;;;;;;;47.20;26.57;;;10.80;99.90;;;;;;5084779;28;20203;-73
2021/05/27 04:47:58;;;;;;;43.07;26.10;;;10.80;99.90;;;;;;5086695;28;20624;-73
2021/05/27 04:50:26;;;;;;;46.30;26.33;;;10.80;99.90;;;;;;5086396;28;20282;-74
2021/05/27 04:52:54;;;;;;;43.73;25.20;;;10.80;99.90;;;;;;5084239;28;20226;-74
2021/05/27 04:55:22;;;;;;;45.43;26.17;;;10.70;99.90;;;;;;5083506;28;20249;-74
2021/05/27 04:57:50;;;;;;;38.40;24.97;;;10.70;99.90;;;;;;5083015;28;20191;-73
2021/05/27 05:00:20;;;;;;;43.73;26.37;;;10.70;99.90;;;;;;5079391;28;20261;-74
2021/05/27 05:02:51;;;;;;;46.20;25.20;;;10.80;99.90;;;;;;5083356;28;20187;-73
2021/05/27 05:05:20;;;;;;;42.70;25.87;;;10.80;99.90;;;;;;5084079;28;20246;-73
2021/05/27 05:07:49;;;;;;;39.93;25.43;;;10.80;99.90;;;;;;5083556;28;20195;-73
2021/05/27 05:10:18;;;;;;;42.27;25.10;;;10.80;99.90;;;;;;5086455;28;20606;-74
2021/05/27 05:12:46;;;;;;;41.67;24.33;;;10.80;99.90;;;;;;5083620;28;20680;-70
2021/05/27 05:15:16;;;;;;;39.13;25.77;;;10.90;99.90;;;;;;5085454;28;20195;-74
2021/05/27 05:17:47;;;;;;;41.73;25.30;;;10.90;99.90;;;;;;5082137;28;20290;-73
2021/05/27 05:20:17;;;;;;;40.87;25.00;;;11.00;99.90;;;;;;5088297;28;20198;-73
2021/05/27 05:22:45;;;;;;;40.93;24.63;;;11.00;99.90;;;;;;5088827;28;20226;-74
2021/05/27 05:25:13;;;;;;;37.03;24.00;;;11.10;99.90;;;;;;5088057;28;20650;-74
2021/05/27 05:27:42;;;;;;;39.43;23.83;;;11.10;99.90;;;;;;5087606;28;20887;-74
2021/05/27 05:30:11;;;;;;;36.93;25.03;;;11.10;99.90;;;;;;5083958;28;20192;-74
2021/05/27 05:32:39;;;;;;;35.43;23.60;;;11.10;99.90;;;;;;5081626;28;20249;-74
2021/05/27 05:35:09;;;;;;;33.93;23.30;;;11.10;99.90;;;;;;5085172;28;20885;-74
2021/05/27 05:37:38;;;;;;;40.10;24.13;;;11.10;99.90;;;;;;5086072;28;20219;-74
2021/05/27 05:40:08;;;;;;;40.03;24.00;;;11.20;99.90;;;;;;5088162;28;20188;-74
2021/05/27 05:42:37;;;;;;;30.97;21.50;;;11.20;99.90;;;;;;5078998;28;20183;-74
2021/05/27 05:45:07;;;;;;;34.40;22.60;;;11.30;99.90;;;;;;5083699;28;20367;-73
2021/05/27 05:47:35;;;;;;;35.20;23.40;;;11.30;99.90;;;;;;5079200;28;20302;-73
2021/05/27 05:50:05;;;;;;;31.97;22.47;;;11.40;99.90;;;;;;5087146;28;20187;-75
2021/05/27 05:52:33;;;;;;;29.60;21.30;;;11.40;99.90;;;;;;5085012;28;20260;-73
2021/05/27 05:55:02;;;;;;;33.13;21.17;;;11.50;99.90;;;;;;5083002;28;20199;-75
2021/05/27 05:57:30;;;;;;;30.97;21.37;;;11.50;99.90;;;;;;5081655;28;20195;-74
2021/05/27 05:59:58;;;;;;;29.63;21.00;;;11.50;99.90;;;;;;5076995;28;20627;-74
2021/05/27 06:02:26;;;;;;;27.30;20.30;;;11.50;99.90;;;;;;5085204;28;20248;-74
2021/05/27 06:04:54;;;;;;;32.27;21.60;;;11.60;99.90;;;;;;5082509;28;20199;-74
2021/05/27 06:07:22;;;;;;;38.37;22.07;;;11.60;99.90;;;;;;5088975;28;20306;-74
2021/05/27 06:09:50;;;;;;;33.77;21.80;;;11.60;99.90;;;;;;5089211;28;20223;-72
2021/05/27 06:12:19;;;;;;;30.47;21.30;;;11.60;99.90;;;;;;5080197;28;20215;-74
2021/05/27 06:14:46;;;;;;;30.50;21.00;;;11.60;99.90;;;;;;5073729;28;20183;-74
2021/05/27 06:17:14;;;;;;;33.63;21.00;;;11.60;99.90;;;;;;5079646;28;20578;-75
2021/05/27 06:19:42;;;;;;;32.23;20.47;;;11.70;99.90;;;;;;5070647;28;20288;-75
2021/05/27 06:22:10;;;;;;;30.13;20.67;;;11.80;99.90;;;;;;5089041;28;20215;-75
2021/05/27 06:24:38;;;;;;;28.17;20.47;;;11.80;99.90;;;;;;5088357;28;20896;-75
2021/05/27 06:27:09;;;;;;;28.07;19.90;;;11.80;99.90;;;;;;5089247;28;20302;-75
2021/05/27 06:29:38;;;;;;;27.27;18.40;;;11.90;99.90;;;;;;5089141;28;20198;-75
2021/05/27 06:32:06;;;;;;;31.23;18.60;;;11.90;99.90;;;;;;5089006;28;20287;-75
2021/05/27 06:34:34;;;;;;;26.00;19.00;;;11.90;99.90;;;;;;5076790;28;20187;-73
2021/05/27 06:37:02;;;;;;;23.93;17.50;;;12.00;99.90;;;;;;5082753;28;20203;-74
2021/05/27 06:39:32;;;;;;;28.83;18.37;;;12.20;99.90;;;;;;5083575;28;20192;-74
2021/05/27 06:42:02;;;;;;;26.87;18.20;;;12.30;99.90;;;;;;5080939;28;20245;-74
2021/05/27 06:44:30;;;;;;;24.87;17.73;;;12.40;99.90;;;;;;5079012;28;20245;-74
2021/05/27 06:46:59;;;;;;;24.50;17.00;;;12.30;99.90;;;;;;5083554;28;20229;-74
2021/05/27 06:49:27;;;;;;;29.00;17.97;;;12.30;99.90;;;;;;5082517;28;20230;-74
2021/05/27 06:51:56;;;;;;;24.43;17.60;;;12.30;99.90;;;;;;5074935;28;20193;-73
2021/05/27 06:54:24;;;;;;;24.47;17.83;;;12.40;99.90;;;;;;5087440;28;20274;-73
2021/05/27 06:56:52;;;;;;;25.80;17.53;;;12.40;99.90;;;;;;5083665;28;20267;-72
2021/05/27 06:59:20;;;;;;;25.50;17.50;;;12.50;99.90;;;;;;5076318;28;20282;-72
2021/05/27 07:01:50;;;;;;;21.83;16.30;;;12.70;99.90;;;;;;5087827;28;20187;-73
2021/05/27 07:04:19;;;;;;;23.80;16.33;;;12.80;99.90;;;;;;5085996;28;20202;-74
2021/05/27 07:06:47;;;;;;;23.07;15.97;;;12.80;99.90;;;;;;5088353;28;20204;-74
2021/05/27 07:09:14;;;;;;;26.67;16.57;;;13.00;99.90;;;;;;5088424;28;20210;-75
2021/05/27 07:11:42;;;;;;;23.53;14.70;;;13.10;99.90;;;;;;5086601;28;20210;-75
2021/05/27 07:14:10;;;;;;;22.03;15.70;;;13.10;99.90;;;;;;5085688;28;20312;-73
2021/05/27 07:16:40;;;;;;;25.27;17.63;;;13.10;99.90;;;;;;5087849;28;20202;-74
2021/05/27 07:19:08;;;;;;;23.73;16.13;;;13.10;99.90;;;;;;5089638;28;20637;-75
2021/05/27 07:21:38;;;;;;;24.53;15.63;;;13.20;99.90;;;;;;5090525;28;20673;-75
2021/05/27 07:24:07;;;;;;;18.97;15.03;;;13.30;99.90;;;;;;5090540;28;20224;-73
2021/05/27 07:26:35;;;;;;;24.60;15.70;;;13.20;99.90;;;;;;5082065;28;20281;-75
2021/05/27 07:29:03;;;;;;;19.70;14.13;;;13.10;99.90;;;;;;5071746;28;20257;-75
2021/05/27 07:31:32;;;;;;;20.30;14.33;;;13.00;99.90;;;;;;5087978;28;20665;-75
2021/05/27 07:34:01;;;;;;;20.40;13.37;;;12.90;99.90;;;;;;5085851;28;20792;-75
2021/05/27 07:36:29;;;;;;;16.03;11.43;;;12.80;99.90;;;;;;5086440;28;20294;-75
2021/05/27 07:38:57;;;;;;;20.73;13.60;;;12.70;99.90;;;;;;5088339;28;20192;-73
2021/05/27 07:41:25;;;;;;;22.77;14.90;;;12.60;99.90;;;;;;5077405;28;20204;-74
2021/05/27 07:43:55;;;;;;;18.93;13.63;;;12.60;99.90;;;;;;5081700;28;20198;-73
2021/05/27 07:46:23;;;;;;;23.17;15.83;;;12.50;99.90;;;;;;5078853;28;20187;-75
2021/05/27 07:48:51;;;;;;;24.97;16.23;;;12.50;99.90;;;;;;5089786;28;20188;-75
2021/05/27 07:51:20;;;;;;;26.37;16.30;;;12.60;99.90;;;;;;5082605;28;20191;-74
2021/05/27 07:53:48;;;;;;;19.57;15.27;;;12.60;99.90;;;;;;5084729;28;20192;-74
2021/05/27 07:56:17;;;;;;;24.80;14.90;;;12.70;99.90;;;;;;5079286;28;20249;-74
2021/05/27 07:58:45;;;;;;;19.40;14.90;;;12.90;99.90;;;;;;5080255;28;20195;-74
2021/05/27 08:01:15;;;;;;;18.47;15.17;;;13.00;99.90;;;;;;5086477;28;20223;-75
2021/05/27 08:03:43;;;;;;;20.83;15.50;;;13.00;99.90;;;;;;5074050;28;20231;-75
2021/05/27 08:06:11;;;;;;;22.57;15.50;;;13.00;99.90;;;;;;5102000;27;20226;-75
2021/05/27 08:08:41;;;;;;;17.60;14.33;;;13.10;99.90;;;;;;5080836;28;20773;-75
2021/05/27 08:11:09;;;;;;;22.07;15.63;;;13.20;99.90;;;;;;5089412;28;20192;-75
2021/05/27 08:13:38;;;;;;;23.27;16.33;;;13.40;99.90;;;;;;5087236;28;20223;-75
2021/05/27 08:16:06;;;;;;;21.10;15.20;;;13.50;99.90;;;;;;5078088;28;20574;-75
2021/05/27 08:18:34;;;;;;;18.73;15.30;;;13.70;99.90;;;;;;5090715;28;20218;-74
2021/05/27 08:21:03;;;;;;;20.03;14.03;;;13.90;99.90;;;;;;5083303;28;20218;-74
2021/05/27 08:23:31;;;;;;;18.53;14.00;;;14.10;99.90;;;;;;5089243;28;20235;-75
2021/05/27 08:25:59;;;;;;;17.03;13.27;;;14.30;99.90;;;;;;5090755;28;20222;-74
2021/05/27 08:28:27;;;;;;;17.40;13.37;;;14.10;99.90;;;;;;5081552;28;20299;-75
2021/05/27 08:30:56;;;;;;;18.20;13.63;;;14.10;99.90;;;;;;5097050;28;20212;-75
2021/05/27 08:33:24;;;;;;;15.83;13.23;;;14.40;99.90;;;;;;5087811;28;20687;-76
2021/05/27 08:35:52;;;;;;;15.37;12.73;;;15.00;99.90;;;;;;5082555;28;20216;-75
2021/05/27 08:38:20;;;;;;;14.73;13.23;;;15.30;99.90;;;;;;5085851;28;20274;-75
2021/05/27 08:40:48;;;;;;;19.43;13.50;;;14.90;99.90;;;;;;5084620;28;20216;-75
2021/05/27 08:43:16;;;;;;;15.57;13.43;;;14.80;99.90;;;;;;5089939;28;20943;-75
2021/05/27 08:45:47;;;;;;;17.77;14.63;;;14.50;99.90;;;;;;5087131;28;20683;-75
2021/05/27 08:48:16;;;;;;;18.03;14.70;;;14.30;99.90;;;;;;5090484;27;20199;-75
2021/05/27 08:50:46;;;;;;;20.67;14.53;;;14.10;99.90;;;;;;5084733;28;20219;-75
2021/05/27 08:53:17;;;;;;;20.00;14.80;;;14.00;99.90;;;;;;5089943;28;20226;-75
2021/05/27 08:55:45;;;;;;;15.43;13.70;;;13.90;99.90;;;;;;5085073;28;20227;-75
2021/05/27 08:58:14;;;;;;;16.43;13.27;;;13.90;99.90;;;;;;5086617;28;20238;-74
2021/05/27 09:00:43;;;;;;;16.63;13.63;;;13.90;99.90;;;;;;5086414;28;20592;-75
2021/05/27 09:03:13;;;;;;;17.90;13.77;;;13.80;99.90;;;;;;5088999;28;20191;-75
2021/05/27 09:05:42;;;;;;;17.60;13.40;;;13.80;99.90;;;;;;5086509;28;20279;-75
2021/05/27 09:08:25;;;;;;;19.57;13.73;;;14.00;99.90;;;;;;5085830;28;20306;-75
2021/05/27 09:10:55;;;;;;;15.97;12.10;;;14.20;99.90;;;;;;5081352;28;20684;-77
2021/05/27 09:13:23;;;;;;;15.17;12.13;;;14.50;99.90;;;;;;5089839;28;20842;-75
2021/05/27 09:15:52;;;;;;;17.37;13.17;;;14.60;99.90;;;;;;5087939;28;20244;-76
2021/05/27 09:18:31;;;;;;;17.83;13.17;;;14.50;99.90;;;;;;5080130;28;20184;-76
2021/05/27 09:21:00;;;;;;;17.63;14.27;;;14.50;99.90;;;;;;5088385;28;20223;-75
2021/05/27 09:23:28;;;;;;;19.77;13.47;;;14.60;99.90;;;;;;5086013;28;20314;-73
2021/05/27 09:26:07;;;;;;;15.10;12.40;;;14.70;99.90;;;;;;5086820;28;20594;-75
2021/05/27 09:28:35;;;;;;;12.70;10.43;;;14.90;99.90;;;;;;5084384;28;20207;-75
2021/05/27 09:31:05;;;;;;;13.87;10.37;;;15.40;99.90;;;;;;5081487;28;20284;-76
2021/05/27 09:33:37;;;;;;;11.27;9.57;;;16.40;99.90;;;;;;5075750;28;20249;-74
2021/05/27 09:36:07;;;;;;;11.10;9.37;;;16.90;99.90;;;;;;5084124;28;20191;-76
2021/05/27 09:38:37;;;;;;;11.53;8.77;;;17.60;99.90;;;;;;5075379;28;20196;-77
2021/05/27 09:41:15;;;;;;;8.43;7.03;;;18.10;99.90;;;;;;5077930;28;20187;-74
2021/05/27 09:43:48;;;;;;;6.43;5.67;;;18.70;99.90;;;;;;5088838;28;20191;-74
2021/05/27 09:46:17;;;;;;;6.63;5.57;;;19.10;99.90;;;;;;5085803;28;20187;-75
2021/05/27 09:48:46;;;;;;;5.90;5.20;;;18.90;99.90;;;;;;5082780;28;20214;-77
2021/05/27 09:51:26;;;;;;;6.20;5.30;;;18.20;99.90;;;;;;5087274;28;20222;-75
2021/05/27 09:53:56;;;;;;;7.30;5.50;;;18.10;99.90;;;;;;5080235;28;20192;-76
2021/05/27 09:56:35;;;;;;;5.90;5.13;;;17.70;99.90;;;;;;5080323;28;20225;-77
2021/05/27 09:59:08;;;;;;;6.33;5.70;;;17.50;99.90;;;;;;5077818;28;20191;-75
2021/05/27 10:01:36;;;;;;;5.30;4.83;;;17.20;99.90;;;;;;5085257;28;20192;-75
2021/05/27 10:04:11;;;;;;;8.43;6.13;;;16.80;99.90;;;;;;5083983;28;20533;-75
2021/05/27 10:06:40;;;;;;;8.13;5.53;;;16.60;99.90;;;;;;5090061;28;20195;-76
2021/05/27 10:09:09;;;;;;;5.77;5.27;;;16.50;99.90;;;;;;5089844;28;20295;-77
2021/05/27 10:11:38;;;;;;;5.30;4.80;;;16.20;99.90;;;;;;5083003;28;20283;-76
2021/05/27 10:14:07;;;;;;;7.40;5.63;;;16.20;99.90;;;;;;5064980;28;20188;-76
2021/05/27 10:16:39;;;;;;;5.93;5.40;;;16.00;99.90;;;;;;5087107;28;20218;-77
2021/05/27 10:19:08;;;;;;;10.00;6.00;;;16.30;99.90;;;;;;5084179;28;20192;-76
2021/05/27 10:21:38;;;;;;;7.53;6.10;;;16.70;99.90;;;;;;5085890;28;20212;-76
2021/05/27 10:24:08;;;;;;;10.10;6.00;;;16.70;99.90;;;;;;5093050;28;20287;-76
2021/05/27 10:26:36;;;;;;;10.63;7.43;;;16.40;99.90;;;;;;5077752;28;20213;-76
2021/05/27 10:29:23;;;;;;;15.53;8.27;;;16.00;99.90;;;;;;5080326;28;20244;-76
2021/05/27 10:31:52;;;;;;;10.47;7.47;;;15.70;99.90;;;;;;5078969;28;20231;-76
2021/05/27 10:34:42;;;;;;;11.23;6.87;;;16.00;99.90;;;;;;5082917;28;20311;-76
2021/05/27 10:37:15;;;;;;;10.67;6.80;;;16.70;99.90;;;;;;5090426;28;20267;-75
2021/05/27 10:39:43;;;;;;;6.63;6.03;;;17.40;99.90;;;;;;5091478;28;20290;-76
2021/05/27 10:42:11;;;;;;;10.20;6.37;;;17.80;99.90;;;;;;5085317;28;20246;-76
2021/05/27 10:45:08;;;;;;;7.17;6.30;;;17.90;99.90;;;;;;5091681;28;20285;-76
2021/05/27 10:47:36;;;;;;;8.93;6.70;;;17.20;99.90;;;;;;5089632;28;20268;-75
2021/05/27 10:50:07;;;;;;;6.73;6.00;;;17.00;99.90;;;;;;5093292;28;20653;-76
2021/05/27 10:52:38;;;;;;;7.33;5.90;;;16.80;99.90;;;;;;5083971;28;20195;-76
2021/05/27 10:55:42;;;;;;;6.83;6.13;;;16.60;99.90;;;;;;5093492;28;20210;-76
2021/05/27 10:58:11;;;;;;;6.60;6.00;;;16.70;99.90;;;;;;5085695;28;20247;-73
2021/05/27 11:00:50;;;;;;;8.57;6.63;;;17.30;99.90;;;;;;5084448;28;20198;-76
2021/05/27 11:03:49;;;;;;;8.07;6.17;;;17.30;99.90;;;;;;5088930;28;20276;-76
2021/05/27 11:06:19;;;;;;;9.00;7.10;;;16.80;99.90;;;;;;5088131;28;20658;-76
2021/05/27 11:08:47;;;;;;;8.17;5.97;;;16.30;99.90;;;;;;5091961;28;20314;-77
2021/05/27 11:11:37;;;;;;;9.60;6.17;;;16.20;99.90;;;;;;5079446;28;20219;-75
2021/05/27 11:14:17;;;;;;;7.60;5.70;;;16.20;99.90;;;;;;5086918;28;20187;-76
2021/05/27 11:17:19;;;;;;;6.83;5.33;;;16.60;99.90;;;;;;5082858;28;20651;-76
2021/05/27 11:19:52;;;;;;;10.77;5.53;;;17.40;99.90;;;;;;5091096;28;20209;-75
2021/05/27 11:23:05;;;;;;;6.33;5.70;;;17.60;99.90;;;;;;5085639;28;20264;-76
2021/05/27 11:25:35;;;;;;;7.53;5.93;;;17.70;99.90;;;;;;5083267;28;20273;-77
2021/05/27 11:28:25;;;;;;;7.97;5.80;;;17.30;99.90;;;;;;5077852;28;20236;-74
2021/05/27 11:30:57;;;;;;;6.77;6.03;;;16.80;99.90;;;;;;5077735;28;20191;-76
2021/05/27 11:33:37;;;;;;;7.73;6.00;;;16.40;99.90;;;;;;5087246;28;20195;-76
2021/05/27 11:36:15;;;;;;;9.07;6.10;;;16.60;99.90;;;;;;5081477;28;20192;-76
2021/05/27 11:38:46;;;;;;;9.20;5.90;;;17.40;99.90;;;;;;5086745;28;20268;-75
2021/05/27 11:41:18;;;;;;;6.10;5.57;;;17.70;99.90;;;;;;5079807;28;20606;-77
2021/05/27 11:43:53;;;;;;;8.43;5.50;;;18.10;99.90;;;;;;5085195;28;20274;-76
2021/05/27 11:46:25;;;;;;;5.97;5.37;;;18.40;99.90;;;;;;5072183;28;20290;-76
2021/05/27 11:48:58;;;;;;;6.00;5.33;;;18.30;99.90;;;;;;5082405;28;20302;-78
2021/05/27 11:51:30;;;;;;;8.30;5.30;;;18.10;99.90;;;;;;5079550;28;20229;-76
2021/05/27 11:54:00;;;;;;;9.83;5.83;;;17.70;99.90;;;;;;5079334;28;20710;-76
2021/05/27 11:56:38;;;;;;;6.73;5.27;;;17.40;99.90;;;;;;5088896;28;20331;-77
2021/05/27 11:59:09;;;;;;;9.77;5.67;;;17.80;99.90;;;;;;5079195;28;20287;-76
2021/05/27 12:01:39;;;;;;;12.23;5.40;;;18.30;99.90;;;;;;5087913;28;20686;-77
2021/05/27 12:04:10;;;;;;;5.03;4.60;;;18.70;99.90;;;;;;5088749;28;20198;-77
2021/05/27 12:06:52;;;;;;;9.20;5.23;;;18.80;99.90;;;;;;5081718;28;20222;-76
2021/05/27 12:09:39;;;;;;;5.80;5.30;;;18.20;99.90;;;;;;5076635;28;20222;-77
2021/05/27 12:12:19;;;;;;;6.33;5.73;;;17.20;99.90;;;;;;5082978;28;20255;-76
2021/05/27 12:14:52;;;;;;;8.87;5.40;;;17.00;99.90;;;;;;5080458;28;20222;-76
2021/05/27 12:17:27;;;;;;;7.13;5.70;;;17.30;99.90;;;;;;5081543;28;20242;-75
2021/05/27 12:19:59;;;;;;;5.33;4.20;;;17.30;99.90;;;;;;5084457;28;20661;-76
2021/05/27 12:22:44;;;;;;;5.00;4.07;;;17.40;99.90;;;;;;5072173;28;20273;-76
2021/05/27 12:25:13;;;;;;;3.70;3.50;;;17.30;99.90;;;;;;5081959;28;20319;-76
2021/05/27 12:27:44;;;;;;;3.47;3.27;;;17.30;99.90;;;;;;5083239;28;20686;-77
2021/05/27 12:30:17;;;;;;;4.40;3.30;;;17.40;99.90;;;;;;5085742;28;20191;-75
2021/05/27 12:32:48;;;;;;;3.60;3.37;;;17.60;99.90;;;;;;5099729;27;20210;-76
2021/05/27 12:35:18;;;;;;;5.77;4.40;;;17.50;99.90;;;;;;5085774;28;20258;-76
2021/05/27 12:37:47;;;;;;;5.27;4.60;;;17.30;99.90;;;;;;5084902;28;20216;-75
2021/05/27 12:40:23;;;;;;;7.23;4.63;;;17.20;99.90;;;;;;5086683;28;20183;-77
2021/05/27 12:42:53;;;;;;;6.63;4.37;;;17.00;99.90;;;;;;5090542;28;20195;-76
2021/05/27 12:45:39;;;;;;;5.23;4.40;;;17.00;99.90;;;;;;5089167;28;20675;-76
2021/05/27 12:48:13;;;;;;;4.37;4.07;;;17.00;99.90;;;;;;5079641;28;20318;-76
2021/05/27 12:51:01;;;;;;;6.43;4.43;;;17.10;99.90;;;;;;5086749;28;20774;-76
2021/05/27 12:53:31;;;;;;;6.17;4.57;;;17.30;99.90;;;;;;5085396;28;20282;-76
2021/05/27 12:56:11;;;;;;;6.10;4.53;;;17.30;99.90;;;;;;5086883;28;20282;-78
2021/05/27 12:58:42;;;;;;;5.33;3.93;;;17.10;99.90;;;;;;5076064;28;20222;-76
2021/05/27 13:01:10;;;;;;;8.07;4.63;;;17.10;99.90;;;;;;5087969;28;20192;-76